sensor_id;sensor_type;location;lat;lon;timestamp;pressure;altitude;pressure_sealevel;temperature;humidity
8573;BME280;4324;42.012;24.872;2023-10-08T00:01:08;99169.06;;;17.53;42.88
8573;BME280;4324;42.012;24.872;2023-10-08T00:03:38;99155.28;;;17.50;42.71
8573;BME280;4324;42.012;24.872;2023-10-08T00:06:06;99148.09;;;17.50;42.80
8573;BME280;4324;42.012;24.872;2023-10-08T00:08:38;99156.31;;;17.49;42.80
8573;BME280;4324;42.012;24.872;2023-10-08T00:11:06;99156.31;;;17.49;42.68
8573;BME280;4324;42.012;24.872;2023-10-08T00:13:36;99145.81;;;17.47;42.35
8573;BME280;4324;42.012;24.872;2023-10-08T00:16:05;99151.38;;;17.46;42.60
8573;BME280;4324;42.012;24.872;2023-10-08T00:18:36;99151.38;;;17.46;42.61
8573;BME280;4324;42.012;24.872;2023-10-08T00:21:03;99148.50;;;17.40;42.78
8573;BME280;4324;42.012;24.872;2023-10-08T00:23:42;99142.91;;;17.42;42.75
8573;BME280;4324;42.012;24.872;2023-10-08T00:26:17;99130.38;;;17.36;42.72
8573;BME280;4324;42.012;24.872;2023-10-08T00:28:54;99144.38;;;17.45;42.65
8573;BME280;4324;42.012;24.872;2023-10-08T00:31:22;99142.72;;;17.44;42.67
8573;BME280;4324;42.012;24.872;2023-10-08T00:33:52;99129.94;;;17.46;42.45
8573;BME280;4324;42.012;24.872;2023-10-08T00:36:19;99125.22;;;17.48;42.20
8573;BME280;4324;42.012;24.872;2023-10-08T00:38:47;99133.84;;;17.50;42.18
8573;BME280;4324;42.012;24.872;2023-10-08T00:41:17;99122.13;;;17.44;42.06
8573;BME280;4324;42.012;24.872;2023-10-08T00:43:47;99129.75;;;17.40;42.32
8573;BME280;4324;42.012;24.872;2023-10-08T00:46:17;99112.25;;;17.31;42.31
8573;BME280;4324;42.012;24.872;2023-10-08T00:48:49;99113.91;;;17.32;42.07
8573;BME280;4324;42.012;24.872;2023-10-08T00:51:21;99114.09;;;17.31;42.25
8573;BME280;4324;42.012;24.872;2023-10-08T00:53:54;99114.09;;;17.31;42.35
8573;BME280;4324;42.012;24.872;2023-10-08T00:56:28;99110.41;;;17.25;42.26
8573;BME280;4324;42.012;24.872;2023-10-08T00:59:12;99095.81;;;17.14;42.36
8573;BME280;4324;42.012;24.872;2023-10-08T01:01:41;99113.91;;;17.26;42.40
8573;BME280;4324;42.012;24.872;2023-10-08T01:04:15;99102.78;;;17.22;42.50
8573;BME280;4324;42.012;24.872;2023-10-08T01:06:42;99113.09;;;17.25;42.50
8573;BME280;4324;42.012;24.872;2023-10-08T01:09:09;99114.09;;;17.24;42.57
8573;BME280;4324;42.012;24.872;2023-10-08T01:11:45;99121.31;;;17.24;42.47
8573;BME280;4324;42.012;24.872;2023-10-08T01:14:15;99125.03;;;17.23;42.45
8573;BME280;4324;42.012;24.872;2023-10-08T01:16:44;99131.22;;;17.10;42.67
8573;BME280;4324;42.012;24.872;2023-10-08T01:19:17;99104.97;;;16.72;42.68
8573;BME280;4324;42.012;24.872;2023-10-08T01:21:45;99132.81;;;16.84;42.80
8573;BME280;4324;42.012;24.872;2023-10-08T01:24:14;99129.91;;;16.79;42.87
8573;BME280;4324;42.012;24.872;2023-10-08T01:26:43;99134.03;;;16.75;43.29
8573;BME280;4324;42.012;24.872;2023-10-08T01:29:11;99127.41;;;16.71;43.21
8573;BME280;4324;42.012;24.872;2023-10-08T01:31:45;99130.06;;;16.71;43.35
8573;BME280;4324;42.012;24.872;2023-10-08T01:34:11;99125.94;;;16.68;43.30
8573;BME280;4324;42.012;24.872;2023-10-08T01:36:44;99135.06;;;16.74;43.55
8573;BME280;4324;42.012;24.872;2023-10-08T01:39:11;99128.50;;;16.77;43.43
8573;BME280;4324;42.012;24.872;2023-10-08T01:41:44;99119.84;;;16.81;43.40
8573;BME280;4324;42.012;24.872;2023-10-08T01:44:12;99118.81;;;16.82;43.35
8573;BME280;4324;42.012;24.872;2023-10-08T01:46:39;99103.59;;;16.83;43.23
8573;BME280;4324;42.012;24.872;2023-10-08T01:49:06;99104.00;;;16.86;43.43
8573;BME280;4324;42.012;24.872;2023-10-08T01:51:39;99100.31;;;16.87;43.36
8573;BME280;4324;42.012;24.872;2023-10-08T01:54:12;99100.31;;;16.87;43.80
8573;BME280;4324;42.012;24.872;2023-10-08T01:56:41;99083.88;;;16.84;43.76
8573;BME280;4324;42.012;24.872;2023-10-08T01:59:10;99089.41;;;16.82;43.94
8573;BME280;4324;42.012;24.872;2023-10-08T02:01:39;99087.34;;;16.78;43.96
8573;BME280;4324;42.012;24.872;2023-10-08T02:04:06;99079.28;;;16.71;44.37
8573;BME280;4324;42.012;24.872;2023-10-08T02:06:35;99049.88;;;16.58;44.34
8573;BME280;4324;42.012;24.872;2023-10-08T02:09:03;99073.94;;;16.71;44.45
8573;BME280;4324;42.012;24.872;2023-10-08T02:11:44;99073.56;;;16.74;44.11
8573;BME280;4324;42.012;24.872;2023-10-08T02:14:12;99079.09;;;16.79;44.14
8573;BME280;4324;42.012;24.872;2023-10-08T02:16:40;99072.94;;;16.85;44.07
8573;BME280;4324;42.012;24.872;2023-10-08T02:19:08;99070.28;;;16.92;43.67
8573;BME280;4324;42.012;24.872;2023-10-08T02:21:37;99070.69;;;16.96;43.86
8573;BME280;4324;42.012;24.872;2023-10-08T02:24:06;99065.75;;;16.99;43.76
8573;BME280;4324;42.012;24.872;2023-10-08T02:26:34;99062.69;;;17.02;43.58
8573;BME280;4324;42.012;24.872;2023-10-08T02:29:01;99069.44;;;17.05;43.38
8573;BME280;4324;42.012;24.872;2023-10-08T02:31:33;99050.53;;;17.00;43.30
8573;BME280;4324;42.012;24.872;2023-10-08T02:33:59;99062.47;;;17.04;43.34
8573;BME280;4324;42.012;24.872;2023-10-08T02:36:26;99050.94;;;17.03;42.89
8573;BME280;4324;42.012;24.872;2023-10-08T02:38:53;99059.38;;;17.07;43.19
8573;BME280;4324;42.012;24.872;2023-10-08T02:41:20;99062.06;;;17.07;43.02
8573;BME280;4324;42.012;24.872;2023-10-08T02:43:50;99058.34;;;17.08;42.90
8573;BME280;4324;42.012;24.872;2023-10-08T02:46:17;99053.00;;;17.08;42.82
8573;BME280;4324;42.012;24.872;2023-10-08T02:48:45;99053.00;;;17.08;42.81
8573;BME280;4324;42.012;24.872;2023-10-08T02:51:12;99053.00;;;17.08;42.86
8573;BME280;4324;42.012;24.872;2023-10-08T02:53:40;99053.22;;;17.06;42.96
8573;BME280;4324;42.012;24.872;2023-10-08T02:56:09;99046.41;;;17.04;43.08
8573;BME280;4324;42.012;24.872;2023-10-08T02:58:39;99052.16;;;17.01;43.30
8573;BME280;4324;42.012;24.872;2023-10-08T03:01:07;99064.09;;;16.98;43.18
8573;BME280;4324;42.012;24.872;2023-10-08T03:03:39;99056.28;;;16.97;43.27
8573;BME280;4324;42.012;24.872;2023-10-08T03:06:08;99059.78;;;16.90;43.16
8573;BME280;4324;42.012;24.872;2023-10-08T03:08:37;99061.22;;;16.93;43.32
8573;BME280;4324;42.012;24.872;2023-10-08T03:11:09;99062.44;;;16.90;43.27
8573;BME280;4324;42.012;24.872;2023-10-08T03:13:43;99054.22;;;16.85;43.04
8573;BME280;4324;42.012;24.872;2023-10-08T03:16:12;99056.69;;;16.87;43.01
8573;BME280;4324;42.012;24.872;2023-10-08T03:18:40;99049.28;;;16.82;43.12
8573;BME280;4324;42.012;24.872;2023-10-08T03:21:10;99069.06;;;16.88;42.95
8573;BME280;4324;42.012;24.872;2023-10-08T03:23:47;99012.44;;;16.58;42.82
8573;BME280;4324;42.012;24.872;2023-10-08T03:26:16;99045.78;;;16.82;42.71
8573;BME280;4324;42.012;24.872;2023-10-08T03:29:00;99048.47;;;16.88;42.57
8573;BME280;4324;42.012;24.872;2023-10-08T03:31:33;99045.81;;;16.95;42.53
8573;BME280;4324;42.012;24.872;2023-10-08T03:34:16;99047.66;;;16.95;42.83
8573;BME280;4324;42.012;24.872;2023-10-08T03:36:47;99045.19;;;16.93;42.79
8573;BME280;4324;42.012;24.872;2023-10-08T03:39:15;99035.09;;;16.88;42.82
8573;BME280;4324;42.012;24.872;2023-10-08T03:41:44;99026.66;;;16.85;42.84
8573;BME280;4324;42.012;24.872;2023-10-08T03:44:23;99041.91;;;16.84;43.03
8573;BME280;4324;42.012;24.872;2023-10-08T03:46:50;99033.66;;;16.86;42.77
8573;BME280;4324;42.012;24.872;2023-10-08T03:49:18;99029.34;;;16.91;42.52
8573;BME280;4324;42.012;24.872;2023-10-08T03:51:54;99027.91;;;16.96;42.14
8573;BME280;4324;42.012;24.872;2023-10-08T03:54:23;99025.41;;;17.01;42.13
8573;BME280;4324;42.012;24.872;2023-10-08T03:56:59;99027.88;;;17.09;42.01
8573;BME280;4324;42.012;24.872;2023-10-08T03:59:26;99033.22;;;17.15;41.90
8573;BME280;4324;42.012;24.872;2023-10-08T04:01:57;99032.81;;;17.18;41.54
8573;BME280;4324;42.012;24.872;2023-10-08T04:04:34;99050.31;;;17.21;41.61
8573;BME280;4324;42.012;24.872;2023-10-08T04:07:16;99028.91;;;17.21;41.38
8573;BME280;4324;42.012;24.872;2023-10-08T04:10:05;99039.22;;;17.17;41.30
8573;BME280;4324;42.012;24.872;2023-10-08T04:13:00;99026.25;;;17.14;41.26
8573;BME280;4324;42.012;24.872;2023-10-08T04:15:27;99030.56;;;17.15;41.25
8573;BME280;4324;42.012;24.872;2023-10-08T04:17:54;99028.50;;;17.17;41.24
8573;BME280;4324;42.012;24.872;2023-10-08T04:20:22;99019.66;;;17.17;40.94
8573;BME280;4324;42.012;24.872;2023-10-08T04:23:00;99012.03;;;17.21;41.08
8573;BME280;4324;42.012;24.872;2023-10-08T04:25:27;99011.00;;;17.28;40.88
8573;BME280;4324;42.012;24.872;2023-10-08T04:27:54;99015.91;;;17.31;40.73
8573;BME280;4324;42.012;24.872;2023-10-08T04:30:24;99016.31;;;17.35;40.57
8573;BME280;4324;42.012;24.872;2023-10-08T04:32:59;99028.69;;;17.36;40.75
8573;BME280;4324;42.012;24.872;2023-10-08T04:35:32;99031.13;;;17.37;40.78
8573;BME280;4324;42.012;24.872;2023-10-08T04:38:04;99003.97;;;17.27;40.60
8573;BME280;4324;42.012;24.872;2023-10-08T04:40:34;99033.59;;;17.46;40.34
8573;BME280;4324;42.012;24.872;2023-10-08T04:43:07;99032.34;;;17.48;40.35
8573;BME280;4324;42.012;24.872;2023-10-08T04:45:36;99022.63;;;17.54;40.08
8573;BME280;4324;42.012;24.872;2023-10-08T04:48:04;99032.50;;;17.60;39.91
8573;BME280;4324;42.012;24.872;2023-10-08T04:50:35;99026.75;;;17.63;39.90
8573;BME280;4324;42.012;24.872;2023-10-08T04:53:04;99026.91;;;17.68;39.78
8573;BME280;4324;42.012;24.872;2023-10-08T04:55:34;99040.13;;;17.76;39.65
8573;BME280;4324;42.012;24.872;2023-10-08T04:58:00;99028.97;;;17.79;39.65
8573;BME280;4324;42.012;24.872;2023-10-08T05:00:30;99030.66;;;17.80;39.79
8573;BME280;4324;42.012;24.872;2023-10-08T05:03:11;99033.09;;;17.82;39.91
8573;BME280;4324;42.012;24.872;2023-10-08T05:05:40;98992.34;;;17.60;39.78
8573;BME280;4324;42.012;24.872;2023-10-08T05:08:29;99021.53;;;17.88;39.86
8573;BME280;4324;42.012;24.872;2023-10-08T05:11:13;99024.16;;;17.95;39.65
8573;BME280;4324;42.012;24.872;2023-10-08T05:13:50;99020.22;;;18.04;39.12
8573;BME280;4324;42.012;24.872;2023-10-08T05:16:28;99024.91;;;18.15;39.10
8573;BME280;4324;42.012;24.872;2023-10-08T05:19:08;99029.59;;;18.26;38.98
8573;BME280;4324;42.012;24.872;2023-10-08T05:21:53;99026.22;;;18.37;38.87
8573;BME280;4324;42.012;24.872;2023-10-08T05:24:44;99030.06;;;18.48;38.67
8573;BME280;4324;42.012;24.872;2023-10-08T05:27:31;99020.28;;;18.60;38.43
8573;BME280;4324;42.012;24.872;2023-10-08T05:30:24;99008.69;;;18.73;38.00
8573;BME280;4324;42.012;24.872;2023-10-08T05:32:54;99012.13;;;18.80;37.99
8573;BME280;4324;42.012;24.872;2023-10-08T05:35:39;99010.69;;;18.78;38.16
8573;BME280;4324;42.012;24.872;2023-10-08T05:38:20;99023.16;;;18.91;38.50
8573;BME280;4324;42.012;24.872;2023-10-08T05:41:05;99021.25;;;18.98;38.05
8573;BME280;4324;42.012;24.872;2023-10-08T05:43:38;99016.59;;;19.12;37.89
8573;BME280;4324;42.012;24.872;2023-10-08T05:46:37;99023.47;;;19.26;37.95
8573;BME280;4324;42.012;24.872;2023-10-08T05:49:32;99032.81;;;19.42;37.77
8573;BME280;4324;42.012;24.872;2023-10-08T05:52:07;99023.56;;;19.56;37.31
8573;BME280;4324;42.012;24.872;2023-10-08T05:54:53;99020.66;;;19.94;35.75
8573;BME280;4324;42.012;24.872;2023-10-08T05:57:39;99026.47;;;20.40;34.82
8573;BME280;4324;42.012;24.872;2023-10-08T06:00:12;99021.56;;;20.78;34.38
8573;BME280;4324;42.012;24.872;2023-10-08T06:02:57;99024.28;;;21.14;33.92
8573;BME280;4324;42.012;24.872;2023-10-08T06:05:36;99031.69;;;21.42;33.50
8573;BME280;4324;42.012;24.872;2023-10-08T06:08:09;99013.38;;;21.67;32.62
8573;BME280;4324;42.012;24.872;2023-10-08T06:10:40;99018.00;;;21.84;32.68
8573;BME280;4324;42.012;24.872;2023-10-08T06:13:13;99013.97;;;21.98;32.30
8573;BME280;4324;42.012;24.872;2023-10-08T06:15:43;99010.19;;;22.11;31.71
8573;BME280;4324;42.012;24.872;2023-10-08T06:18:14;99009.78;;;22.31;32.13
8573;BME280;4324;42.012;24.872;2023-10-08T06:20:41;99012.66;;;22.41;32.45
8573;BME280;4324;42.012;24.872;2023-10-08T06:23:09;99002.06;;;22.51;32.63
8573;BME280;4324;42.012;24.872;2023-10-08T06:25:38;99010.72;;;22.70;31.82
8573;BME280;4324;42.012;24.872;2023-10-08T06:28:17;99021.44;;;22.82;31.53
8573;BME280;4324;42.012;24.872;2023-10-08T06:30:45;99025.88;;;22.88;31.12
8573;BME280;4324;42.012;24.872;2023-10-08T06:33:14;99012.00;;;22.96;30.78
8573;BME280;4324;42.012;24.872;2023-10-08T06:35:42;99018.09;;;23.08;31.39
8573;BME280;4324;42.012;24.872;2023-10-08T06:38:10;99012.28;;;23.16;30.62
8573;BME280;4324;42.012;24.872;2023-10-08T06:40:40;99003.69;;;23.19;30.01
8573;BME280;4324;42.012;24.872;2023-10-08T06:43:08;99019.03;;;23.36;29.16
8573;BME280;4324;42.012;24.872;2023-10-08T06:45:42;99011.16;;;23.51;28.95
8573;BME280;4324;42.012;24.872;2023-10-08T06:48:09;99025.88;;;23.60;29.18
8573;BME280;4324;42.012;24.872;2023-10-08T06:50:44;99002.78;;;23.70;29.51
8573;BME280;4324;42.012;24.872;2023-10-08T06:53:11;99010.50;;;23.83;30.27
8573;BME280;4324;42.012;24.872;2023-10-08T06:55:40;99007.91;;;23.93;31.03
8573;BME280;4324;42.012;24.872;2023-10-08T06:58:07;99019.59;;;23.99;30.19
8573;BME280;4324;42.012;24.872;2023-10-08T07:00:35;99014.56;;;24.07;29.24
8573;BME280;4324;42.012;24.872;2023-10-08T07:03:09;99016.31;;;24.19;29.51
8573;BME280;4324;42.012;24.872;2023-10-08T07:05:40;99015.28;;;24.25;29.11
8573;BME280;4324;42.012;24.872;2023-10-08T07:08:10;99009.44;;;24.33;29.37
8573;BME280;4324;42.012;24.872;2023-10-08T07:10:39;99008.34;;;24.34;29.54
8573;BME280;4324;42.012;24.872;2023-10-08T07:13:08;99006.03;;;24.43;28.84
8573;BME280;4324;42.012;24.872;2023-10-08T07:15:35;99020.44;;;24.48;27.28
8573;BME280;4324;42.012;24.872;2023-10-08T07:18:05;98992.31;;;24.54;28.32
8573;BME280;4324;42.012;24.872;2023-10-08T07:20:40;99016.25;;;24.62;27.60
8573;BME280;4324;42.012;24.872;2023-10-08T07:23:11;99013.56;;;24.68;27.85
8573;BME280;4324;42.012;24.872;2023-10-08T07:25:46;99004.34;;;24.69;28.18
8573;BME280;4324;42.012;24.872;2023-10-08T07:28:19;99006.56;;;24.72;28.07
8573;BME280;4324;42.012;24.872;2023-10-08T07:30:46;99002.25;;;24.76;27.22
8573;BME280;4324;42.012;24.872;2023-10-08T07:33:15;98994.94;;;24.76;26.73
8573;BME280;4324;42.012;24.872;2023-10-08T07:35:47;99000.94;;;24.83;26.19
8573;BME280;4324;42.012;24.872;2023-10-08T07:38:28;99000.75;;;24.95;26.67
8573;BME280;4324;42.012;24.872;2023-10-08T07:40:56;98999.75;;;25.06;28.10
8573;BME280;4324;42.012;24.872;2023-10-08T07:43:23;98998.44;;;25.09;27.79
8573;BME280;4324;42.012;24.872;2023-10-08T07:45:50;98993.34;;;25.13;27.28
8573;BME280;4324;42.012;24.872;2023-10-08T07:48:20;98998.25;;;25.16;26.62
8573;BME280;4324;42.012;24.872;2023-10-08T07:50:49;98999.91;;;25.22;26.66
8573;BME280;4324;42.012;24.872;2023-10-08T07:53:16;98993.94;;;25.25;26.90
8573;BME280;4324;42.012;24.872;2023-10-08T07:55:47;98993.94;;;25.25;26.65
8573;BME280;4324;42.012;24.872;2023-10-08T07:58:17;98996.63;;;25.20;26.47
8573;BME280;4324;42.012;24.872;2023-10-08T08:00:45;98989.06;;;25.22;26.33
8573;BME280;4324;42.012;24.872;2023-10-08T08:03:21;98968.22;;;25.27;25.75
8573;BME280;4324;42.012;24.872;2023-10-08T08:05:49;98977.25;;;25.43;26.46
8573;BME280;4324;42.012;24.872;2023-10-08T08:08:20;98982.66;;;25.43;26.47
8573;BME280;4324;42.012;24.872;2023-10-08T08:10:49;98970.75;;;25.44;26.43
8573;BME280;4324;42.012;24.872;2023-10-08T08:13:24;98969.16;;;25.48;26.23
8573;BME280;4324;42.012;24.872;2023-10-08T08:15:54;98964.31;;;25.61;26.14
8573;BME280;4324;42.012;24.872;2023-10-08T08:18:25;98963.81;;;25.69;25.88
8573;BME280;4324;42.012;24.872;2023-10-08T08:21:00;98954.66;;;25.80;26.58
8573;BME280;4324;42.012;24.872;2023-10-08T08:23:29;98953.31;;;25.82;26.53
8573;BME280;4324;42.012;24.872;2023-10-08T08:25:57;98957.66;;;25.89;25.86
8573;BME280;4324;42.012;24.872;2023-10-08T08:28:37;98954.69;;;25.90;25.96
8573;BME280;4324;42.012;24.872;2023-10-08T08:31:05;98950.88;;;25.86;25.47
8573;BME280;4324;42.012;24.872;2023-10-08T08:33:41;98933.53;;;25.97;25.54
8573;BME280;4324;42.012;24.872;2023-10-08T08:36:24;98953.63;;;26.06;25.63
8573;BME280;4324;42.012;24.872;2023-10-08T08:38:51;98934.91;;;26.05;25.57
8573;BME280;4324;42.012;24.872;2023-10-08T08:41:19;98937.34;;;26.06;25.41
8573;BME280;4324;42.012;24.872;2023-10-08T08:43:50;98947.66;;;26.04;25.31
8573;BME280;4324;42.012;24.872;2023-10-08T08:46:27;98951.75;;;26.12;25.43
8573;BME280;4324;42.012;24.872;2023-10-08T08:48:55;98949.31;;;26.21;24.93
8573;BME280;4324;42.012;24.872;2023-10-08T08:51:25;98932.50;;;26.24;25.49
8573;BME280;4324;42.012;24.872;2023-10-08T08:53:52;98941.72;;;26.28;25.61
8573;BME280;4324;42.012;24.872;2023-10-08T08:56:20;98956.66;;;26.30;25.48
8573;BME280;4324;42.012;24.872;2023-10-08T08:58:49;98933.31;;;26.35;25.39
8573;BME280;4324;42.012;24.872;2023-10-08T09:01:16;98939.84;;;26.34;25.39
8573;BME280;4324;42.012;24.872;2023-10-08T09:03:43;98936.56;;;26.42;25.11
8573;BME280;4324;42.012;24.872;2023-10-08T09:06:13;98938.53;;;26.51;25.10
8573;BME280;4324;42.012;24.872;2023-10-08T09:08:41;98938.53;;;26.51;24.98
8573;BME280;4324;42.012;24.872;2023-10-08T09:11:14;98937.41;;;26.52;25.32
8573;BME280;4324;42.012;24.872;2023-10-08T09:13:41;98931.97;;;26.47;24.79
8573;BME280;4324;42.012;24.872;2023-10-08T09:16:12;98936.34;;;26.48;25.13
8573;BME280;4324;42.012;24.872;2023-10-08T09:18:39;98939.31;;;26.47;25.28
8573;BME280;4324;42.012;24.872;2023-10-08T09:21:09;98922.72;;;26.43;25.01
8573;BME280;4324;42.012;24.872;2023-10-08T09:23:41;98923.56;;;26.49;25.05
8573;BME280;4324;42.012;24.872;2023-10-08T09:26:10;98920.03;;;26.53;25.37
8573;BME280;4324;42.012;24.872;2023-10-08T09:28:39;98926.53;;;26.58;25.52
8573;BME280;4324;42.012;24.872;2023-10-08T09:31:10;98912.69;;;26.69;25.45
8573;BME280;4324;42.012;24.872;2023-10-08T09:33:38;98910.78;;;26.75;25.58
8573;BME280;4324;42.012;24.872;2023-10-08T09:36:06;98910.22;;;26.83;25.33
8573;BME280;4324;42.012;24.872;2023-10-08T09:38:36;98904.75;;;26.88;25.32
8573;BME280;4324;42.012;24.872;2023-10-08T09:41:05;98900.97;;;26.89;25.41
8573;BME280;4324;42.012;24.872;2023-10-08T09:43:34;98897.16;;;26.90;25.31
8573;BME280;4324;42.012;24.872;2023-10-08T09:46:09;98897.44;;;26.94;25.43
8573;BME280;4324;42.012;24.872;2023-10-08T09:48:41;98898.78;;;27.01;25.32
8573;BME280;4324;42.012;24.872;2023-10-08T09:51:10;98894.66;;;27.09;25.26
8573;BME280;4324;42.012;24.872;2023-10-08T09:53:43;98889.22;;;27.09;24.97
8573;BME280;4324;42.012;24.872;2023-10-08T09:56:15;98890.03;;;27.10;25.24
8573;BME280;4324;42.012;24.872;2023-10-08T09:58:44;98874.56;;;27.05;25.18
8573;BME280;4324;42.012;24.872;2023-10-08T10:01:12;98883.53;;;27.16;25.15
8573;BME280;4324;42.012;24.872;2023-10-08T10:03:39;98878.91;;;27.16;25.17
8573;BME280;4324;42.012;24.872;2023-10-08T10:06:15;98876.75;;;27.13;25.20
8573;BME280;4324;42.012;24.872;2023-10-08T10:08:43;98885.72;;;27.19;25.07
8573;BME280;4324;42.012;24.872;2023-10-08T10:11:10;98879.19;;;27.15;25.28
8573;BME280;4324;42.012;24.872;2023-10-08T10:13:43;98876.47;;;27.15;25.19
8573;BME280;4324;42.012;24.872;2023-10-08T10:16:17;98848.22;;;27.11;25.27
8573;BME280;4324;42.012;24.872;2023-10-08T10:18:44;98883.28;;;27.12;25.15
8573;BME280;4324;42.012;24.872;2023-10-08T10:21:27;98878.31;;;27.24;25.19
8573;BME280;4324;42.012;24.872;2023-10-08T10:23:55;98874.50;;;27.31;25.20
8573;BME280;4324;42.012;24.872;2023-10-08T10:26:27;98866.31;;;27.36;24.89
8573;BME280;4324;42.012;24.872;2023-10-08T10:29:19;98864.69;;;27.35;25.37
8573;BME280;4324;42.012;24.872;2023-10-08T10:31:47;98858.72;;;27.38;25.41
8573;BME280;4324;42.012;24.872;2023-10-08T10:34:16;98858.13;;;27.46;25.19
8573;BME280;4324;42.012;24.872;2023-10-08T10:36:45;98846.91;;;27.58;25.06
8573;BME280;4324;42.012;24.872;2023-10-08T10:39:15;98836.53;;;27.65;25.08
8573;BME280;4324;42.012;24.872;2023-10-08T10:41:43;98836.47;;;27.70;24.96
8573;BME280;4324;42.012;24.872;2023-10-08T10:44:11;98829.16;;;27.70;24.92
8573;BME280;4324;42.012;24.872;2023-10-08T10:46:42;98827.47;;;27.80;24.78
8573;BME280;4324;42.012;24.872;2023-10-08T10:49:16;98818.75;;;27.83;24.82
8573;BME280;4324;42.012;24.872;2023-10-08T10:51:48;98810.28;;;27.89;24.93
8573;BME280;4324;42.012;24.872;2023-10-08T10:54:17;98815.41;;;27.96;24.87
8573;BME280;4324;42.012;24.872;2023-10-08T10:56:49;98806.94;;;27.97;24.91
8573;BME280;4324;42.012;24.872;2023-10-08T10:59:29;98805.81;;;27.98;24.86
8573;BME280;4324;42.012;24.872;2023-10-08T11:02:04;98799.56;;;27.98;24.90
8573;BME280;4324;42.012;24.872;2023-10-08T11:04:33;98810.16;;;27.99;24.94
8573;BME280;4324;42.012;24.872;2023-10-08T11:07:13;98783.72;;;28.05;24.89
8573;BME280;4324;42.012;24.872;2023-10-08T11:09:42;98806.56;;;28.09;25.07
8573;BME280;4324;42.012;24.872;2023-10-08T11:12:10;98790.13;;;28.19;25.15
8573;BME280;4324;42.012;24.872;2023-10-08T11:14:40;98788.75;;;28.22;25.26
8573;BME280;4324;42.012;24.872;2023-10-08T11:17:13;98780.53;;;28.27;25.33
8573;BME280;4324;42.012;24.872;2023-10-08T11:19:41;98786.44;;;28.34;25.23
8573;BME280;4324;42.012;24.872;2023-10-08T11:22:11;98771.47;;;28.37;25.10
8573;BME280;4324;42.012;24.872;2023-10-08T11:24:42;98777.44;;;28.39;25.16
8573;BME280;4324;42.012;24.872;2023-10-08T11:27:13;98761.41;;;28.37;25.10
8573;BME280;4324;42.012;24.872;2023-10-08T11:29:55;98741.41;;;28.47;24.91
8573;BME280;4324;42.012;24.872;2023-10-08T11:32:25;98785.78;;;28.48;24.91
8573;BME280;4324;42.012;24.872;2023-10-08T11:34:55;98749.34;;;28.43;25.09
8573;BME280;4324;42.012;24.872;2023-10-08T11:37:27;98770.28;;;28.48;25.05
8573;BME280;4324;42.012;24.872;2023-10-08T11:39:54;98756.06;;;28.51;25.13
8573;BME280;4324;42.012;24.872;2023-10-08T11:42:23;98756.28;;;28.55;24.90
8573;BME280;4324;42.012;24.872;2023-10-08T11:45:09;98761.97;;;28.58;25.11
8573;BME280;4324;42.012;24.872;2023-10-08T11:47:51;98745.06;;;28.61;24.94
8573;BME280;4324;42.012;24.872;2023-10-08T11:50:24;98754.56;;;28.64;24.94
8573;BME280;4324;42.012;24.872;2023-10-08T11:52:59;98740.94;;;28.64;24.80
8573;BME280;4324;42.012;24.872;2023-10-08T11:55:32;98749.03;;;28.69;24.62
8573;BME280;4324;42.012;24.872;2023-10-08T11:58:01;98734.38;;;28.65;24.94
8573;BME280;4324;42.012;24.872;2023-10-08T12:00:36;98726.38;;;28.74;25.01
8573;BME280;4324;42.012;24.872;2023-10-08T12:03:10;98735.84;;;28.81;24.87
8573;BME280;4324;42.012;24.872;2023-10-08T12:05:38;98727.84;;;28.85;24.76
8573;BME280;4324;42.012;24.872;2023-10-08T12:08:13;98720.34;;;28.77;24.97
8573;BME280;4324;42.012;24.872;2023-10-08T12:10:42;98734.19;;;28.80;25.18
8573;BME280;4324;42.012;24.872;2023-10-08T12:13:11;98721.59;;;28.84;24.91
8573;BME280;4324;42.012;24.872;2023-10-08T12:15:38;98718.28;;;28.87;25.18
8573;BME280;4324;42.012;24.872;2023-10-08T12:18:07;98708.16;;;28.93;24.61
8573;BME280;4324;42.012;24.872;2023-10-08T12:20:42;98701.91;;;28.92;24.79
8573;BME280;4324;42.012;24.872;2023-10-08T12:23:13;98726.88;;;29.00;24.76
8573;BME280;4324;42.012;24.872;2023-10-08T12:25:50;98713.59;;;28.93;24.68
8573;BME280;4324;42.012;24.872;2023-10-08T12:28:18;98684.41;;;28.75;24.78
8573;BME280;4324;42.012;24.872;2023-10-08T12:30:45;98701.94;;;28.87;24.56
8573;BME280;4324;42.012;24.872;2023-10-08T12:33:12;98715.22;;;28.94;24.23
8573;BME280;4324;42.012;24.872;2023-10-08T12:35:43;98705.69;;;28.91;24.59
8573;BME280;4324;42.012;24.872;2023-10-08T12:38:10;98692.16;;;28.86;24.99
8573;BME280;4324;42.012;24.872;2023-10-08T12:40:38;98708.38;;;28.97;24.46
8573;BME280;4324;42.012;24.872;2023-10-08T12:43:18;98702.94;;;28.97;24.60
8573;BME280;4324;42.012;24.872;2023-10-08T12:45:46;98694.56;;;28.88;24.42
8573;BME280;4324;42.012;24.872;2023-10-08T12:48:19;98725.88;;;28.90;24.84
8573;BME280;4324;42.012;24.872;2023-10-08T12:50:48;98702.75;;;28.88;24.89
8573;BME280;4324;42.012;24.872;2023-10-08T12:53:22;98697.03;;;28.89;24.82
8573;BME280;4324;42.012;24.872;2023-10-08T12:55:53;98696.81;;;28.86;24.88
8573;BME280;4324;42.012;24.872;2023-10-08T12:58:22;98696.00;;;28.85;24.76
8573;BME280;4324;42.012;24.872;2023-10-08T13:00:52;98703.63;;;28.83;24.75
8573;BME280;4324;42.012;24.872;2023-10-08T13:03:24;98679.78;;;28.75;24.61
8573;BME280;4324;42.012;24.872;2023-10-08T13:05:52;98697.53;;;28.91;24.64
8573;BME280;4324;42.012;24.872;2023-10-08T13:08:19;98687.22;;;28.88;24.61
8573;BME280;4324;42.012;24.872;2023-10-08T13:10:46;98693.78;;;28.87;24.69
8573;BME280;4324;42.012;24.872;2023-10-08T13:13:13;98689.34;;;28.91;24.69
8573;BME280;4324;42.012;24.872;2023-10-08T13:15:40;98684.00;;;29.05;24.58
8573;BME280;4324;42.012;24.872;2023-10-08T13:18:08;98700.59;;;29.09;24.42
8573;BME280;4324;42.012;24.872;2023-10-08T13:20:35;98681.59;;;29.04;24.75
8573;BME280;4324;42.012;24.872;2023-10-08T13:23:07;98700.59;;;29.09;24.77
8573;BME280;4324;42.012;24.872;2023-10-08T13:25:35;98692.63;;;29.12;24.79
8573;BME280;4324;42.012;24.872;2023-10-08T13:28:05;98688.34;;;29.06;24.60
8573;BME280;4324;42.012;24.872;2023-10-08T13:30:35;98686.75;;;29.05;24.91
8573;BME280;4324;42.012;24.872;2023-10-08T13:33:02;98685.63;;;29.06;24.73